Flight Track Log - Related Links

Times and Time Zones

All times are in EDT time to prevent confusion due to time zone crossing. See the UAL4457 flight status page for this flight to view local times or setup timezone preferences in your user account.


Time Position Orientation Groundspeed Altitude Reporting Facility
EDT Latitude Longitude Course Direction KTS MPH feet Rate Location/Type
Fri 05:50:58 PM 37.9625 -84.7264 240° Southwest 219 252 5,000  Level Indianapolis Center
Fri 05:52:00 PM 37.8268 -85.1030 247° West  Level FlightAware Approximate
Fri 05:52:00 PM 37.9314 -84.8094 245° Southwest 244 281 7,200  Level Indianapolis Center
Fri 05:53:00 PM 37.7831 -85.2339 241° Southwest  Level FlightAware Approximate
Fri 05:53:02 PM 37.8978 -84.8939 243° Southwest 260 299 9,400  Level Indianapolis Center
Fri 05:54:00 PM 37.7281 -85.3577 241° Southwest  Level FlightAware Approximate
Fri 05:54:05 PM 37.8617 -84.9856 244° Southwest 279 321 10,800  Level Indianapolis Center
Fri 05:55:00 PM 37.9851 -84.7205 243° Southwest  Level FlightAware Approximate
Fri 05:55:07 PM 37.8192 -85.0900 243° Southwest 317 365 11,800  Level Indianapolis Center
Fri 05:56:09 PM 37.7694 -85.2175 244° Southwest 339 390 13,300 1,306 Climbing Indianapolis Center
Fri 05:57:11 PM 37.7256 -85.3289 244° Southwest 345 397 14,500 1,161 Climbing Indianapolis Center
Fri 05:58:13 PM 37.6803 -85.4400 243° Southwest 350 403 15,700 1,113 Climbing Indianapolis Center
Fri 05:59:15 PM 37.6322 -85.5586 243° Southwest 354 407 16,800 968 Climbing Indianapolis Center
Fri 06:00:17 PM 37.5867 -85.6714 243° Southwest 356 410 17,700 912 Climbing Indianapolis Center
Fri 06:01:20 PM 37.5394 -85.7861 243° Southwest 359 413 18,700 864 Climbing Indianapolis Center
Fri 06:02:22 PM 37.4944 -85.9000 244° Southwest 366 421 19,500 912 Climbing Indianapolis Center
Fri 06:03:25 PM 37.4386 -86.0356 243° Southwest 369 425 20,600 1,016 Climbing Indianapolis Center
Fri 06:04:26 PM 37.3906 -86.1531 243° Southwest 372 428 21,600 897 Climbing Indianapolis Center
Fri 06:05:12 PM 37.3575 -86.2300 242° Southwest 373 429 22,200 881 Climbing Memphis Center
Fri 06:06:15 PM 37.3014 -86.3658 243° Southwest 373 429 23,200 864 Climbing Memphis Center
Fri 06:07:17 PM 37.2531 -86.4828 243° Southwest 373 429 24,000 823 Climbing Memphis Center
Fri 06:08:19 PM 37.2050 -86.6003 243° Southwest 374 430 24,900 823 Climbing Memphis Center
Fri 06:09:21 PM 37.1558 -86.7175 242° Southwest 375 432 25,700 774 Climbing Memphis Center
Fri 06:10:23 PM 37.1072 -86.8369 243° Southwest 377 434 26,500 774 Climbing Memphis Center
Fri 06:11:25 PM 37.0572 -86.9556 242° Southwest 380 437 27,300 968 Climbing Memphis Center
Fri 06:12:27 PM 37.0000 -87.0928 242° Southwest 380 437 28,500 1,008 Climbing Memphis Center
Fri 06:13:30 PM 36.9497 -87.2097 242° Southwest 380 437 29,400 960 Climbing Memphis Center
Fri 06:14:32 PM 36.9003 -87.3275 242° Southwest 380 437 30,500 1,113 Climbing Memphis Center
Fri 06:15:34 PM 36.8569 -87.4456 245° Southwest 379 436 31,700 1,113 Climbing Memphis Center
Fri 06:16:36 PM 36.8150 -87.5642 246° West 375 432 32,800 1,113 Climbing Memphis Center
Fri 06:17:38 PM 36.7731 -87.6831 246° West 374 430 34,000 581 Climbing Memphis Center
Fri 06:18:40 PM 36.7217 -87.8267 246° West 383 441 34,000 194 Level Memphis Center
Fri 06:19:42 PM 36.6742 -87.9597 246° West 406 467 34,400 624 Climbing Memphis Center
Fri 06:20:45 PM 36.6244 -88.0894 245° Southwest 410 472 35,300 768 Climbing Memphis Center
Fri 06:21:47 PM 36.5697 -88.2119 241° Southwest 410 472 36,000 339 Climbing Memphis Center
Fri 06:22:49 PM 36.5119 -88.3383 240° Southwest 412 474 36,000  Level Memphis Center
Fri 06:23:51 PM 36.4544 -88.4675 241° Southwest 423 487 36,000  Level Memphis Center
Fri 06:24:53 PM 36.3950 -88.5975 240° Southwest 426 490 36,000  Level Memphis Center
Fri 06:25:55 PM 36.3253 -88.7478 240° Southwest 423 487 36,000  Level Memphis Center
Fri 06:26:57 PM 36.2689 -88.8706 240° Southwest 412 474 36,000  Level Memphis Center
Fri 06:27:59 PM 36.2103 -88.9961 240° Southwest 412 474 36,000  Level Memphis Center
Fri 06:29:02 PM 36.1519 -89.1239 241° Southwest 417 480 36,000  Level Memphis Center
Fri 06:30:04 PM 36.0925 -89.2522 240° Southwest 420 483 36,000  Level Memphis Center
Fri 06:31:06 PM 36.0344 -89.3803 241° Southwest 422 486 36,000  Level Memphis Center
Fri 06:32:08 PM 35.9758 -89.5075 240° Southwest 422 486 36,000  Level Memphis Center
Fri 06:33:10 PM 35.9175 -89.6319 240° Southwest 422 486 36,000  Level Memphis Center
Fri 06:34:12 PM 35.8478 -89.7794 240° Southwest 420 483 36,000  Level Memphis Center
Fri 06:35:14 PM 35.7900 -89.9025 240° Southwest 418 481 36,000  Level Memphis Center
Fri 06:36:17 PM 35.7397 -90.0278 244° Southwest 411 473 36,000  Level Memphis Center
Fri 06:37:19 PM 35.7017 -90.1636 251° West 412 474 36,000  Level Memphis Center
Fri 06:38:21 PM 35.6631 -90.2936 250° West 413 475 36,000  Level Memphis Center
Fri 06:39:23 PM 35.6181 -90.4531 251° West 413 475 36,000  Level Memphis Center
Fri 06:40:25 PM 35.5850 -90.5881 253° West 413 475 36,000  Level Memphis Center
Fri 06:41:27 PM 35.5506 -90.7197 252° West 412 474 36,000  Level Memphis Center
Fri 06:42:29 PM 35.5189 -90.8522 254° West 409 471 36,000  Level Memphis Center
Fri 06:43:32 PM 35.4889 -90.9853 255° West 409 471 36,000  Level Memphis Center
Fri 06:44:34 PM 35.4586 -91.1475 257° West 409 471 36,000  Level Memphis Center
Fri 06:45:36 PM 35.4414 -91.2872 261° West 411 473 36,000  Level Memphis Center
Fri 06:46:38 PM 35.4314 -91.4144 265° West 411 473 36,000  Level Memphis Center
Fri 06:47:40 PM 35.4208 -91.5514 265° West 410 472 36,000  Level Memphis Center
Fri 06:48:42 PM 35.3739 -91.7047 249° West 404 465 36,000  Level Memphis Center
Fri 06:49:44 PM 35.2828 -91.7906 218° Southwest 412 474 36,000  Level Memphis Center
Fri 06:50:47 PM 35.1839 -91.8650 212° Southwest 415 478 36,000  Level Memphis Center
Fri 06:51:49 PM 35.0828 -91.9397 211° Southwest 418 481 36,000  Level Memphis Center
Fri 06:53:53 PM 34.8817 -92.0861 211° Southwest 418 481 36,000  Level Memphis Center
Fri 06:54:55 PM 34.7611 -92.1686 209° Southwest 417 480 36,000  Level Memphis Center
Fri 06:55:57 PM 34.6469 -92.1936 190° South 416 479 36,000  Level Memphis Center
Fri 06:56:59 PM 34.5314 -92.2156 189° South 416 479 36,000  Level Memphis Center
Fri 06:58:01 PM 34.4169 -92.2381 189° South 416 479 36,000  Level Memphis Center
Fri 06:59:04 PM 34.3044 -92.2578 188° South 410 472 36,000  Level Memphis Center
Fri 07:00:06 PM 34.1911 -92.2792 189° South 410 472 36,000  Level Memphis Center
Fri 07:01:08 PM 34.0692 -92.3008 188° South 410 472 36,000  Level Memphis Center
Fri 07:02:11 PM 33.9581 -92.3225 189° South 406 467 36,000  Level Memphis Center
Fri 07:03:12 PM 33.8478 -92.3494 191° South 405 466 36,000  Level Memphis Center
Fri 07:04:14 PM 33.7203 -92.4019 199° South 405 466 36,000  Level Memphis Center
Fri 07:05:16 PM 33.6097 -92.4311 192° South 405 466 36,000  Level Memphis Center
Fri 07:06:19 PM 33.4969 -92.4472 187° South 405 466 36,000  Level Memphis Center
Fri 07:07:21 PM 33.3833 -92.4644 187° South 406 467 36,000  Level Memphis Center
Fri 07:08:23 PM 33.2697 -92.4819 187° South 408 470 36,000  Level Memphis Center
Fri 07:09:25 PM 33.1556 -92.4994 187° South 408 470 36,000  Level Memphis Center
Fri 07:10:27 PM 33.0403 -92.5175 187° South 412 474 36,000  Level Memphis Center
Fri 07:11:58 PM 32.8589 -92.5442 187° South 415 478 36,000  Level Fort Worth Center
Fri 07:13:00 PM 32.7425 -92.5600 187° South 416 479 36,000  Level Fort Worth Center
Fri 07:14:02 PM 32.6250 -92.5786 188° South 422 486 36,000  Level Fort Worth Center
Fri 07:15:04 PM 32.4881 -92.5989 187° South 414 476 36,000  Level Fort Worth Center
Fri 07:16:06 PM 32.3789 -92.6147 187° South 416 479 36,000  Level Fort Worth Center
Fri 07:17:09 PM 32.2642 -92.6325 187° South 416 479 36,000  Level Fort Worth Center
Fri 07:18:11 PM 32.1511 -92.6517 188° South 414 476 36,000  Level Fort Worth Center
Fri 07:19:13 PM 32.0156 -92.6711 187° South 409 471 36,000  Level Fort Worth Center
Fri 07:20:15 PM 31.9217 -92.7450 214° Southwest 418 481 36,000  Level Fort Worth Center
Fri 07:21:17 PM 31.8458 -92.8447 228° Southwest 417 480 36,000  Level Fort Worth Center
Fri 07:22:28 PM 31.7564 -92.9581 227° Southwest 413 475 36,000  Level Houston Center
Fri 07:23:30 PM 31.6792 -93.0594 228° Southwest 414 476 36,000  Level Houston Center
Fri 07:24:33 PM 31.5856 -93.1803 228° Southwest 415 478 36,000  Level Houston Center
Fri 07:25:35 PM 31.5039 -93.2853 228° Southwest 417 480 36,000  Level Houston Center
Fri 07:26:37 PM 31.4250 -93.3844 227° Southwest 417 480 36,000  Level Houston Center
Fri 07:27:39 PM 31.3450 -93.4867 228° Southwest 424 488 36,000  Level Houston Center
Fri 07:28:41 PM 31.2642 -93.5886 227° Southwest 423 487 36,000 -48 Level Houston Center
Fri 07:29:44 PM 31.1736 -93.7042 228° Southwest 422 486 35,900 -1,008 Descending Houston Center
Fri 07:30:46 PM 31.0944 -93.8047 227° Southwest 422 486 33,900 -2,274 Descending Houston Center
Fri 07:31:48 PM 31.0050 -93.9169 227° Southwest 434 499 31,200 -2,371 Descending Houston Center
Fri 07:32:50 PM 30.9286 -94.0131 227° Southwest 440 506 29,000 -2,129 Descending Houston Center
Fri 07:33:52 PM 30.8472 -94.1139 227° Southwest 435 501 26,800 -2,177 Descending Houston Center
Fri 07:34:54 PM 30.7597 -94.2239 227° Southwest 422 486 24,500 -2,160 Descending Houston Center
Fri 07:35:57 PM 30.6767 -94.3267 227° Southwest 408 470 22,300 -2,318 Descending Houston Center
Fri 07:36:22 PM 30.6386 -94.3769 229° Southwest 396 456 21,100 -2,129 Descending Houston Center
Fri 07:36:59 PM 30.6033 -94.4181 225° Southwest 395 455 20,100 -2,029 Descending Houston Center
Fri 07:37:30 PM 30.5619 -94.4719 228° Southwest 392 451 18,800 -2,516 Descending Houston Center
Fri 07:38:01 PM 30.5161 -94.5292 227° Southwest 400 460 17,500 -2,459 Descending Houston Center
Fri 07:38:31 PM 30.4786 -94.5872 233° Southwest 420 483 16,300 -2,110 Descending Houston Center
Fri 07:39:32 PM 30.4067 -94.6911 231° Southwest 405 466 14,300 -1,851 Descending Houston Center
Fri 07:40:05 PM 30.3739 -94.7356 229° Southwest 408 470 13,400 -2,182 Descending Houston Center
Fri 07:40:27 PM 30.3419 -94.7817 231° Southwest 401 461 12,300 -2,226 Descending Houston Center
Fri 07:41:07 PM 30.3033 -94.8303 227° Southwest 394 453 11,100 -1,869 Descending Houston Center
Fri 07:41:28 PM 30.2728 -94.8728 230° Southwest 360 414 10,400 -667 Descending Houston Center
Fri 07:42:10 PM 30.2394 -94.9175 229° Southwest 361 415 10,400 -197 Level Houston Center
Fri 07:42:29 PM 30.2094 -94.9581 229° Southwest 346 398 10,200 -194 Descending Houston Center
Fri 07:43:12 PM 30.1767 -95.0031 230° Southwest 355 409 10,200 -290 Level Houston Center
Fri 07:43:31 PM 30.1500 -95.0406 231° Southwest 318 366 9,900 -1,161 Descending Houston Center
Fri 07:44:14 PM 30.1217 -95.0992 241° Southwest 305 351 9,000 -1,574 Descending Houston Center
Fri 07:44:32 PM 30.1186 -95.1314 264° West 289 333 8,300 -1,452 Descending Houston Center
Fri 07:45:16 PM 30.1078 -95.1894 258° West 296 341 7,500 -1,364 Descending Houston Center
Fri 07:45:38 PM 30.1003 -95.2303 258° West 289 333 6,800 -1,065 Descending Houston Center
Fri 07:46:18 PM 30.0936 -95.2811 261° West 296 341 6,400 -774 Descending Houston Center
Fri 07:46:40 PM 30.0922 -95.3231 268° West 290 334 6,000 -387 Descending Houston Center
Fri 07:47:20 PM 30.0922 -95.3722 270° West 291 335 6,000 -590 Level Houston Center
Fri 07:47:41 PM 30.0925 -95.4194 270° West 285 328 5,400 -1,355 Descending Houston Center
Fri 07:48:22 PM 30.0928 -95.4625 270° West 285 328 4,600 -1,527 Descending Houston Center
Fri 07:48:36 PM 30.0894 -95.5019 264° West 284 327 4,000 -1,048 Descending Houston Center
Fri 07:49:25 PM 30.0669 -95.5556 244° Southwest 253 291 3,500 -627 Descending Houston Center
Fri 07:49:43 PM 30.0492 -95.5672 210° Southwest 230 265 3,300 -492 Descending Houston Center
Fri 07:50:26 PM 30.0086 -95.5703 184° South 229 264 3,000 -327 Descending Houston Center
Fri 07:50:38 PM 29.9958 -95.5589 142° Southeast 210 242 3,000 -387 Level Houston Center
Fri 07:51:28 PM 29.9925 -95.5086 94° East 222 255 2,600 -590 Descending Houston Center
Fri 07:51:39 PM 29.9919 -95.4919 92° East 208 239 2,400 -871 Descending Houston Center
Fri 07:52:30 PM 29.9922 -95.4556 89° East 189 217 1,700 -871 Descending Houston Center
Fri 07:52:41 PM 29.9919 -95.4436 92° East 116 133 1,500 -676 Descending Houston Center
Fri 07:53:41 PM 29.9925 -95.4050 89° East 120 138 900 -478 Descending Houston Center
Fri 07:54:34 PM 29.9933 -95.3797 88° East 126 145 600 -261 Descending Houston Center
Fri 07:55:36 PM 29.9939 -95.3317 89° East 125 144 400 -194 Descending Houston Center

Login

Don't have an account? Register now (free) for customized features, flight alerts, and more!